^^
Saratoga-Weather Station Historical Data
Daily Summary for June 7, 2021 Units:  Metric    English   Both
Daily Weekly Monthly Yearly Custom
  High: Low: Average:
Temperature: 28.1 °C 14.8 °C 20.7 °C
Dew Point: 17 °C 13.2 °C 14.7 °C
Humidity: 93% 41% 71%
Wind Speed: 9.7km/h km/h 1.2km/h
Wind Gust: 16.1km/h - -
Wind- - SE
Pressure: 1022.4 hPa 1018.3 hPa -
Precipitation: 0.0 mm    
Historical Graphs
 
 
Tabular Data for June 7, 2021
Time Temperature Dew Point Pressure Wind Wind Speed Wind Gust Humidity Rainfall Rate (Hourly) solar
00:04 18.2 °C 14.5 °C 1022.4 hPa WSW 1.4 km/h 3.2 km/h 79% 0.0 mm 0 W/m2
00:09 18.4 °C 14.5 °C 1022.4 hPa Calm   3.2 km/h 78% 0.0 mm 0 W/m2
00:14 18.5 °C 14.6 °C 1022.4 hPa Calm   1.6 km/h 78% 0.0 mm 0 W/m2
00:19 18.6 °C 14.5 °C 1022.4 hPa South 1.4 km/h 3.2 km/h 77% 0.0 mm 0 W/m2
00:25 18.6 °C 14.5 °C 1022.4 hPa Calm   8 km/h 77% 0.0 mm 0 W/m2
00:30 18.7 °C 14.6 °C 1022.4 hPa WSW 1.4 km/h 3.2 km/h 77% 0.0 mm 0 W/m2
00:35 18.7 °C 14.6 °C 1022.4 hPa Calm   4.8 km/h 77% 0.0 mm 0 W/m2
00:40 18.6 °C 14.7 °C 1022.4 hPa Calm   1.6 km/h 78% 0.0 mm 0 W/m2
00:45 18.4 °C 14.5 °C 1022.4 hPa WSW 1.4 km/h 1.6 km/h 78% 0.0 mm 0 W/m2
00:50 18.3 °C 14.6 °C 1022.4 hPa Calm   4.8 km/h 79% 0.0 mm 0 W/m2
00:55 18.2 °C 14.5 °C 1022.4 hPa Calm     79% 0.0 mm 0 W/m2
01:00 18.2 °C 14.7 °C 1022.4 hPa Calm   4.8 km/h 80% 0.0 mm 0 W/m2
01:05 18.3 °C 14.6 °C 1022.4 hPa Calm     79% 0.0 mm 0 W/m2
01:10 18.3 °C 14.8 °C 1022.4 hPa Calm     80% 0.0 mm 0 W/m2
01:15 18.3 °C 14.8 °C 1022.4 hPa Calm     80% 0.0 mm 0 W/m2
01:20 18.2 °C 14.7 °C 1022.4 hPa Calm     80% 0.0 mm 0 W/m2
01:25 18.2 °C 14.7 °C 1022.4 hPa Calm     80% 0.0 mm 0 W/m2
01:30 18.1 °C 14.8 °C 1022.4 hPa Calm     81% 0.0 mm 0 W/m2
01:35 18 °C 14.7 °C 1022.4 hPa Calm     81% 0.0 mm 0 W/m2
01:40 17.9 °C 14.8 °C 1022.4 hPa Calm     82% 0.0 mm 0 W/m2
01:45 17.9 °C 14.8 °C 1022.4 hPa Calm     82% 0.0 mm 0 W/m2
01:50 17.9 °C 14.8 °C 1022.4 hPa Calm     82% 0.0 mm 0 W/m2
01:55 17.8 °C 14.7 °C 1022.4 hPa Calm     82% 0.0 mm 0 W/m2
02:00 17.7 °C 14.6 °C 1022.4 hPa Calm     82% 0.0 mm 0 W/m2
02:05 17.7 °C 14.8 °C 1022.0 hPa Calm     83% 0.0 mm 0 W/m2
02:10 17.5 °C 14.6 °C 1022.0 hPa Calm   3.2 km/h 83% 0.0 mm 0 W/m2
02:15 17.4 °C 14.7 °C 1022.0 hPa Calm     84% 0.0 mm 0 W/m2
02:20 17.3 °C 14.6 °C 1022.0 hPa Calm     84% 0.0 mm 0 W/m2
02:25 17.2 °C 14.5 °C 1022.0 hPa Calm     84% 0.0 mm 0 W/m2
02:30 17 °C 14.5 °C 1022.0 hPa Calm     85% 0.0 mm 0 W/m2
02:35 16.9 °C 14.4 °C 1022.0 hPa SW 3.2 km/h 4.8 km/h 85% 0.0 mm 0 W/m2
02:40 16.8 °C 14.4 °C 1022.0 hPa Calm     86% 0.0 mm 0 W/m2
02:45 16.8 °C 14.4 °C 1022.0 hPa Calm   4.8 km/h 86% 0.0 mm 0 W/m2
02:50 16.7 °C 14.3 °C 1022.0 hPa Calm     86% 0.0 mm 0 W/m2
02:55 16.7 °C 14.3 °C 1022.0 hPa Calm     86% 0.0 mm 0 W/m2
03:00 16.6 °C 14.4 °C 1022.0 hPa Calm   3.2 km/h 87% 0.0 mm 0 W/m2
03:05 16.5 °C 14.3 °C 1021.7 hPa Calm     87% 0.0 mm 0 W/m2
03:10 16.5 °C 14.3 °C 1021.7 hPa Calm     87% 0.0 mm 0 W/m2
03:15 16.4 °C 14.4 °C 1021.7 hPa SW 1.4 km/h 3.2 km/h 88% 0.0 mm 0 W/m2
03:20 16.3 °C 14.3 °C 1021.7 hPa Calm   1.6 km/h 88% 0.0 mm 0 W/m2
03:26 16.2 °C 14.2 °C 1021.7 hPa Calm   3.2 km/h 88% 0.0 mm 0 W/m2
03:31 16.1 °C 14.1 °C 1021.7 hPa Calm     88% 0.0 mm 0 W/m2
03:36 16 °C 14.2 °C 1021.7 hPa Calm     89% 0.0 mm 0 W/m2
03:41 15.9 °C 14.1 °C 1021.7 hPa Calm     89% 0.0 mm 0 W/m2
03:46 15.8 °C 14 °C 1021.3 hPa Calm     89% 0.0 mm 0 W/m2
03:51 15.8 °C 14 °C 1021.3 hPa Calm     89% 0.0 mm 0 W/m2
03:56 15.7 °C 13.9 °C 1021.3 hPa Calm     89% 0.0 mm 0 W/m2
04:01 15.7 °C 13.9 °C 1021.7 hPa Calm     89% 0.0 mm 0 W/m2
04:06 15.6 °C 14 °C 1021.7 hPa Calm     90% 0.0 mm 0 W/m2
04:11 15.6 °C 14 °C 1021.7 hPa Calm     90% 0.0 mm 0 W/m2
04:16 15.5 °C 13.9 °C 1021.7 hPa Calm     90% 0.0 mm 0 W/m2
04:21 15.4 °C 13.8 °C 1021.7 hPa Calm     90% 0.0 mm 0 W/m2
04:26 15.4 °C 13.8 °C 1021.7 hPa Calm     90% 0.0 mm 0 W/m2
04:31 15.3 °C 13.7 °C 1021.7 hPa Calm     90% 0.0 mm 0 W/m2
04:36 15.3 °C 13.7 °C 1021.7 hPa Calm     90% 0.0 mm 0 W/m2
04:41 15.2 °C 13.7 °C 1021.7 hPa Calm     91% 0.0 mm 0 W/m2
04:46 15.2 °C 13.9 °C 1021.7 hPa Calm     92% 0.0 mm 0 W/m2
04:51 15.2 °C 13.9 °C 1021.7 hPa Calm     92% 0.0 mm 0 W/m2
04:56 15.2 °C 13.7 °C 1021.7 hPa Calm     91% 0.0 mm 0 W/m2
05:01 15.2 °C 13.9 °C 1021.7 hPa Calm     92% 0.0 mm 0 W/m2
05:06 15.1 °C 13.8 °C 1021.3 hPa Calm     92% 0.0 mm 0 W/m2
05:11 15 °C 13.7 °C 1021.3 hPa Calm     92% 0.0 mm 0 W/m2
05:16 14.9 °C 13.6 °C 1021.3 hPa Calm     92% 0.0 mm 0 W/m2
05:21 14.8 °C 13.5 °C 1021.3 hPa Calm     92% 0.0 mm 0 W/m2
05:26 14.8 °C 13.5 °C 1021.3 hPa SW 1.4 km/h 3.2 km/h 92% 0.0 mm 0 W/m2
05:31 14.8 °C 13.5 °C 1021.3 hPa Calm   1.6 km/h 92% 0.0 mm 0 W/m2
05:36 14.8 °C 13.7 °C 1021.3 hPa Calm     93% 0.0 mm 0 W/m2
05:41 14.9 °C 13.8 °C 1021.3 hPa Calm   1.6 km/h 93% 0.0 mm 0 W/m2
05:46 14.9 °C 13.8 °C 1021.3 hPa Calm     93% 0.0 mm 0 W/m2
05:51 15 °C 13.9 °C 1021.3 hPa SW 3.2 km/h 3.2 km/h 93% 0.0 mm 0 W/m2
05:56 15.2 °C 14.1 °C 1021.3 hPa Calm     93% 0.0 mm 0 W/m2
06:01 15.3 °C 14.2 °C 1021.3 hPa Calm   1.6 km/h 93% 0.0 mm 0 W/m2
06:06 15.4 °C 14.1 °C 1021.3 hPa WSW 3.2 km/h 3.2 km/h 92% 0.0 mm 0 W/m2
06:11 15.6 °C 14.3 °C 1021.3 hPa South 1.4 km/h 1.6 km/h 92% 0.0 mm 0 W/m2
06:16 15.7 °C 14.2 °C 1021.3 hPa South 1.4 km/h 3.2 km/h 91% 0.0 mm 0 W/m2
06:21 15.8 °C 14.3 °C 1021.3 hPa SW 1.4 km/h 3.2 km/h 91% 0.0 mm 0 W/m2
06:26 15.8 °C 14.2 °C 1021.3 hPa Calm   3.2 km/h 90% 0.0 mm 0 W/m2
06:31 15.9 °C 14.3 °C 1021.3 hPa Calm   1.6 km/h 90% 0.0 mm 0 W/m2
06:36 15.9 °C 14.3 °C 1021.3 hPa Calm   1.6 km/h 90% 0.0 mm 0 W/m2
06:41 16 °C 14.2 °C 1021.3 hPa Calm   1.6 km/h 89% 0.0 mm 0 W/m2
06:46 16 °C 14.2 °C 1021.3 hPa Calm     89% 0.0 mm 0 W/m2
06:51 15.9 °C 14.1 °C 1021.3 hPa Calm   3.2 km/h 89% 0.0 mm 0 W/m2
06:56 15.9 °C 14.1 °C 1021.3 hPa SW 1.4 km/h 1.6 km/h 89% 0.0 mm 0 W/m2
07:01 15.8 °C 14 °C 1021.3 hPa SW 1.4 km/h 3.2 km/h 89% 0.0 mm 0 W/m2
07:06 15.8 °C 14 °C 1021.3 hPa Calm   1.6 km/h 89% 0.0 mm 0 W/m2
07:11 15.8 °C 14 °C 1021.3 hPa Calm   3.2 km/h 89% 0.0 mm 5 W/m2
07:16 15.8 °C 14 °C 1021.3 hPa SW 1.4 km/h 1.6 km/h 89% 0.0 mm 7 W/m2
07:21 15.7 °C 13.9 °C 1021.3 hPa Calm   3.2 km/h 89% 0.0 mm 9 W/m2
07:26 15.7 °C 13.9 °C 1021.3 hPa Calm   1.6 km/h 89% 0.0 mm 11 W/m2
07:31 15.7 °C 14.1 °C 1021.3 hPa Calm   3.2 km/h 90% 0.0 mm 12 W/m2
07:36 15.7 °C 14.1 °C 1021.3 hPa Calm   1.6 km/h 90% 0.0 mm 16 W/m2
07:41 15.7 °C 14.1 °C 1021.3 hPa Calm     90% 0.0 mm 21 W/m2
07:46 15.8 °C 14.2 °C 1021.3 hPa Calm   3.2 km/h 90% 0.0 mm 25 W/m2
07:51 15.8 °C 14.2 °C 1021.7 hPa Calm   1.6 km/h 90% 0.0 mm 30 W/m2
07:56 15.8 °C 14.2 °C 1021.7 hPa Calm   3.2 km/h 90% 0.0 mm 39 W/m2
08:01 15.9 °C 14.1 °C 1021.7 hPa Calm   1.6 km/h 89% 0.0 mm 47 W/m2
08:06 16.2 °C 14.2 °C 1021.7 hPa SSW 1.4 km/h 1.6 km/h 88% 0.0 mm 58 W/m2
08:11 16.3 °C 14.3 °C 1021.7 hPa Calm   1.6 km/h 88% 0.0 mm 69 W/m2
08:16 16.4 °C 14.4 °C 1021.7 hPa Calm     88% 0.0 mm 83 W/m2
08:21 16.6 °C 14.6 °C 1021.7 hPa Calm     88% 0.0 mm 100 W/m2
08:26 16.7 °C 14.5 °C 1021.7 hPa Calm     87% 0.0 mm 97 W/m2
08:31 16.8 °C 14.6 °C 1021.7 hPa Calm     87% 0.0 mm 97 W/m2
08:36 16.9 °C 14.5 °C 1021.7 hPa Calm     86% 0.0 mm 123 W/m2
08:41 17 °C 14.5 °C 1021.7 hPa Calm     85% 0.0 mm 107 W/m2
08:47 17.1 °C 14.4 °C 1022.0 hPa Calm     84% 0.0 mm 134 W/m2
08:52 17.2 °C 14.5 °C 1022.0 hPa Calm     84% 0.0 mm 130 W/m2
08:57 17.3 °C 14.6 °C 1022.0 hPa Calm   1.6 km/h 84% 0.0 mm 172 W/m2
09:02 17.4 °C 14.5 °C 1022.0 hPa SSW 1.4 km/h 1.6 km/h 83% 0.0 mm 86 W/m2
09:07 17.6 °C 14.7 °C 1022.0 hPa Calm     83% 0.0 mm 100 W/m2
09:12 17.8 °C 14.7 °C 1022.0 hPa Calm     82% 0.0 mm 193 W/m2
09:17 18 °C 14.7 °C 1022.0 hPa East 3.2 km/h 3.2 km/h 81% 0.0 mm 171 W/m2
09:22 18.1 °C 14.8 °C 1022.0 hPa Calm   1.6 km/h 81% 0.0 mm 271 W/m2
09:27 18.3 °C 14.8 °C 1022.0 hPa Calm   3.2 km/h 80% 0.0 mm 202 W/m2
09:32 18.6 °C 14.9 °C 1022.0 hPa Calm   1.6 km/h 79% 0.0 mm 183 W/m2
09:37 18.7 °C 14.8 °C 1022.0 hPa ENE 1.4 km/h 3.2 km/h 78% 0.0 mm 283 W/m2
09:42 18.9 °C 15 °C 1022.0 hPa ENE 1.4 km/h 3.2 km/h 78% 0.0 mm 316 W/m2
09:47 19 °C 15.1 °C 1022.4 hPa NNE 1.4 km/h 4.8 km/h 78% 0.0 mm 330 W/m2
09:52 19.2 °C 15.3 °C 1022.4 hPa East 3.2 km/h 4.8 km/h 78% 0.0 mm 325 W/m2
09:57 19.4 °C 15.3 °C 1022.4 hPa Calm   1.6 km/h 77% 0.0 mm 330 W/m2
10:02 19.6 °C 15.3 °C 1022.4 hPa Calm   1.6 km/h 76% 0.0 mm 364 W/m2
10:07 19.8 °C 15.2 °C 1022.4 hPa East 4.7 km/h 6.4 km/h 75% 0.0 mm 367 W/m2
10:12 19.8 °C 15.2 °C 1022.4 hPa Calm   3.2 km/h 75% 0.0 mm 403 W/m2
10:17 20 °C 15.4 °C 1022.4 hPa Calm   6.4 km/h 75% 0.0 mm 415 W/m2
10:22 20.3 °C 15.5 °C 1022.4 hPa NE 3.2 km/h 4.8 km/h 74% 0.0 mm 383 W/m2
10:27 20.4 °C 15.4 °C 1022.4 hPa East 3.2 km/h 4.8 km/h 73% 0.0 mm 373 W/m2
10:32 20.6 °C 15.6 °C 1022.4 hPa ESE 1.4 km/h 4.8 km/h 73% 0.0 mm 413 W/m2
10:37 20.7 °C 15.5 °C 1022.4 hPa Calm   1.6 km/h 72% 0.0 mm 436 W/m2
10:42 20.9 °C 15.7 °C 1022.4 hPa SE 3.2 km/h 3.2 km/h 72% 0.0 mm 461 W/m2
10:47 21.1 °C 15.6 °C 1022.4 hPa East 3.2 km/h 4.8 km/h 71% 0.0 mm 448 W/m2
10:52 21.3 °C 15.8 °C 1022.4 hPa Calm     71% 0.0 mm 411 W/m2
10:57 21.6 °C 15.7 °C 1022.4 hPa NE 3.2 km/h 3.2 km/h 69% 0.0 mm 462 W/m2
11:02 21.8 °C 15.6 °C 1022.4 hPa ENE 4.7 km/h 6.4 km/h 68% 0.0 mm 485 W/m2
11:07 21.6 °C 15.7 °C 1022.4 hPa East 3.2 km/h 6.4 km/h 69% 0.0 mm 529 W/m2
11:12 21.7 °C 15.8 °C 1022.4 hPa ESE 1.4 km/h 4.8 km/h 69% 0.0 mm 496 W/m2
11:17 21.9 °C 15.7 °C 1022.4 hPa SE 1.4 km/h 6.4 km/h 68% 0.0 mm 526 W/m2
11:22 22.2 °C 15.5 °C 1022.4 hPa Calm   3.2 km/h 66% 0.0 mm 515 W/m2
11:27 22.3 °C 15.6 °C 1022.4 hPa East 3.2 km/h 6.4 km/h 66% 0.0 mm 446 W/m2
11:32 22.4 °C 15.5 °C 1022.4 hPa NE 1.4 km/h 6.4 km/h 65% 0.0 mm 564 W/m2
11:37 22.6 °C 15.9 °C 1022.4 hPa East 4.7 km/h 8 km/h 66% 0.0 mm 540 W/m2
11:42 22.7 °C 16 °C 1022.4 hPa NNE 4.7 km/h 4.8 km/h 66% 0.0 mm 561 W/m2
11:47 22.8 °C 15.9 °C 1022.4 hPa ENE 3.2 km/h 3.2 km/h 65% 0.0 mm 494 W/m2
11:52 22.9 °C 16.2 °C 1022.0 hPa North 4.7 km/h 4.8 km/h 66% 0.0 mm 527 W/m2
11:57 23.1 °C 15.9 °C 1022.0 hPa ESE 1.4 km/h 6.4 km/h 64% 0.0 mm 573 W/m2
12:02 23.2 °C 16 °C 1022.0 hPa Calm   4.8 km/h 64% 0.0 mm 573 W/m2
12:07 23.3 °C 16.1 °C 1022.0 hPa ENE 1.4 km/h 3.2 km/h 64% 0.0 mm 608 W/m2
12:12 23.6 °C 15.9 °C 1022.0 hPa North 6.4 km/h 8 km/h 62% 0.0 mm 571 W/m2
12:17 23.7 °C 16 °C 1022.0 hPa NE 3.2 km/h 9.7 km/h 62% 0.0 mm 529 W/m2
12:22 23.7 °C 16 °C 1022.0 hPa Calm   6.4 km/h 62% 0.0 mm 594 W/m2
12:27 23.9 °C 16.7 °C 1022.0 hPa ENE 6.4 km/h 9.7 km/h 64% 0.0 mm 578 W/m2
12:32 24.2 °C 16.2 °C 1021.7 hPa West 3.2 km/h 6.4 km/h 61% 0.0 mm 671 W/m2
12:37 24.2 °C 16.2 °C 1021.7 hPa NNE 3.2 km/h 11.3 km/h 61% 0.0 mm 671 W/m2
12:42 24.4 °C 16.1 °C 1021.7 hPa ESE 3.2 km/h 6.4 km/h 60% 0.0 mm 691 W/m2
12:47 24.8 °C 16.8 °C 1021.7 hPa East 3.2 km/h 9.7 km/h 61% 0.0 mm 570 W/m2
12:52 25.1 °C 16.8 °C 1021.7 hPa SE 1.4 km/h 3.2 km/h 60% 0.0 mm 545 W/m2
12:57 25.3 °C 16.7 °C 1021.7 hPa East 1.4 km/h 1.6 km/h 59% 0.0 mm 543 W/m2
13:02 25.6 °C 17 °C 1021.3 hPa Calm   4.8 km/h 59% 0.0 mm 608 W/m2
13:08 25.8 °C 16.9 °C 1021.3 hPa ESE 1.4 km/h 4.8 km/h 58% 0.0 mm 564 W/m2
13:13 25.9 °C 16.7 °C 1021.3 hPa NE 1.4 km/h 6.4 km/h 57% 0.0 mm 666 W/m2
13:18 26 °C 16.8 °C 1021.3 hPa Calm     57% 0.0 mm 668 W/m2
13:23 26.2 °C 16.7 °C 1021.3 hPa Calm   6.4 km/h 56% 0.0 mm 580 W/m2
13:28 26.3 °C 16.2 °C 1021.0 hPa ESE 4.7 km/h 4.8 km/h 54% 0.0 mm 686 W/m2
13:33 26.2 °C 15.9 °C 1021.0 hPa East 6.4 km/h 9.7 km/h 53% 0.0 mm 663 W/m2
13:38 26.2 °C 16.4 °C 1021.0 hPa NNW 3.2 km/h 3.2 km/h 55% 0.0 mm 649 W/m2
13:43 26.4 °C 16.9 °C 1021.0 hPa North 1.4 km/h 6.4 km/h 56% 0.0 mm 580 W/m2
13:48 26.4 °C 16.3 °C 1021.0 hPa NE 6.4 km/h 6.4 km/h 54% 0.0 mm 689 W/m2
13:53 26.6 °C 15.9 °C 1021.0 hPa ENE 4.7 km/h 9.7 km/h 52% 0.0 mm 596 W/m2
13:58 26.6 °C 15 °C 1021.0 hPa SE 6.4 km/h 16.1 km/h 49% 0.0 mm 663 W/m2
14:03 26.6 °C 14.7 °C 1020.7 hPa East 9.7 km/h 11.3 km/h 48% 0.0 mm 673 W/m2
14:08 26.8 °C 14.5 °C 1020.7 hPa SE 3.2 km/h 16.1 km/h 47% 0.0 mm 664 W/m2
14:13 27 °C 14.7 °C 1020.7 hPa Calm   11.3 km/h 47% 0.0 mm 714 W/m2
14:18 27.2 °C 15.6 °C 1020.7 hPa East 1.4 km/h 12.9 km/h 49% 0.0 mm 737 W/m2
14:23 27.4 °C 14.4 °C 1020.7 hPa ENE 6.4 km/h 9.7 km/h 45% 0.0 mm 717 W/m2
14:28 27.5 °C 14.5 °C 1020.7 hPa ENE 1.4 km/h 6.4 km/h 45% 0.0 mm 429 W/m2
14:33 27.3 °C 15 °C 1020.7 hPa SE 4.7 km/h 6.4 km/h 47% 0.0 mm 411 W/m2
14:38 27 °C 13.4 °C 1020.7 hPa NNE 1.4 km/h 4.8 km/h 43% 0.0 mm 664 W/m2
14:43 27.1 °C 14.1 °C 1020.7 hPa ENE 4.7 km/h 11.3 km/h 45% 0.0 mm 714 W/m2
14:48 27.4 °C 14.1 °C 1020.7 hPa Calm   9.7 km/h 44% 0.0 mm 654 W/m2
14:53 27.5 °C 14.8 °C 1020.3 hPa East 1.4 km/h 11.3 km/h 46% 0.0 mm 186 W/m2
14:58 27.3 °C 14.3 °C 1020.3 hPa East 3.2 km/h 3.2 km/h 45% 0.0 mm 605 W/m2
15:03 27.2 °C 14.2 °C 1020.3 hPa NE 1.4 km/h 11.3 km/h 45% 0.0 mm 642 W/m2
15:08 27.3 °C 14 °C 1020.3 hPa East 4.7 km/h 6.4 km/h 44% 0.0 mm 628 W/m2
15:13 27.5 °C 14.5 °C 1020.3 hPa NE 1.4 km/h 8 km/h 45% 0.0 mm 619 W/m2
15:18 27.6 °C 14.2 °C 1020.3 hPa NNW 1.4 km/h 6.4 km/h 44% 0.0 mm 622 W/m2
15:23 27.6 °C 13.5 °C 1020.3 hPa North 1.4 km/h 9.7 km/h 42% 0.0 mm 605 W/m2
15:28 27.8 °C 13.3 °C 1020.0 hPa ENE 3.2 km/h 8 km/h 41% 0.0 mm 554 W/m2
15:33 27.8 °C 14.1 °C 1020.0 hPa East 6.4 km/h 6.4 km/h 43% 0.0 mm 534 W/m2
15:38 27.7 °C 14 °C 1020.0 hPa South 1.4 km/h 4.8 km/h 43% 0.0 mm 520 W/m2
15:43 27.6 °C 13.2 °C 1020.0 hPa ESE 1.4 km/h 8 km/h 41% 0.0 mm 568 W/m2
15:48 27.5 °C 13.4 °C 1020.0 hPa ENE 7.9 km/h 11.3 km/h 42% 0.0 mm 548 W/m2
15:53 27.5 °C 14.5 °C 1019.6 hPa ENE 7.9 km/h 8 km/h 45% 0.0 mm 589 W/m2
15:58 27.7 °C 14 °C 1019.6 hPa East 1.4 km/h 11.3 km/h 43% 0.0 mm 575 W/m2
16:03 27.8 °C 14.4 °C 1019.6 hPa Calm   4.8 km/h 44% 0.0 mm 550 W/m2
16:08 27.9 °C 14.5 °C 1019.6 hPa ESE 1.4 km/h 4.8 km/h 44% 0.0 mm 557 W/m2
16:13 28.1 °C 14 °C 1019.6 hPa Calm   6.4 km/h 42% 0.0 mm 538 W/m2
16:18 28 °C 13.9 °C 1019.6 hPa Calm   4.8 km/h 42% 0.0 mm 540 W/m2
16:23 28 °C 14.6 °C 1019.6 hPa SSW 1.4 km/h 4.8 km/h 44% 0.0 mm 468 W/m2
16:28 28 °C 14.6 °C 1019.6 hPa Calm   9.7 km/h 44% 0.0 mm 496 W/m2
16:33 27.9 °C 14.5 °C 1019.6 hPa ESE 3.2 km/h 6.4 km/h 44% 0.0 mm 515 W/m2
16:38 27.8 °C 14.4 °C 1019.6 hPa SSE 1.4 km/h 8 km/h 44% 0.0 mm 510 W/m2
16:43 27.8 °C 14.4 °C 1019.3 hPa ESE 6.4 km/h 6.4 km/h 44% 0.0 mm 501 W/m2
16:48 27.8 °C 14.4 °C 1019.3 hPa East 3.2 km/h 6.4 km/h 44% 0.0 mm 483 W/m2
16:53 27.8 °C 14.1 °C 1019.3 hPa SE 1.4 km/h 4.8 km/h 43% 0.0 mm 469 W/m2
16:58 27.7 °C 14 °C 1019.3 hPa NE 3.2 km/h 8 km/h 43% 0.0 mm 441 W/m2
17:03 27.8 °C 14.1 °C 1019.3 hPa SE 1.4 km/h 3.2 km/h 43% 0.0 mm 436 W/m2
17:08 27.9 °C 14.5 °C 1019.3 hPa NE 1.4 km/h 8 km/h 44% 0.0 mm 439 W/m2
17:13 28.1 °C 14.3 °C 1019.0 hPa East 3.2 km/h 4.8 km/h 43% 0.0 mm 432 W/m2
17:18 28.1 °C 14.7 °C 1019.0 hPa Calm   1.6 km/h 44% 0.0 mm 396 W/m2
17:23 27.9 °C 14.5 °C 1019.0 hPa East 1.4 km/h 3.2 km/h 44% 0.0 mm 373 W/m2
17:28 27.8 °C 14.8 °C 1019.0 hPa ESE 3.2 km/h 4.8 km/h 45% 0.0 mm 388 W/m2
17:33 27.7 °C 14 °C 1019.0 hPa ENE 1.4 km/h 9.7 km/h 43% 0.0 mm 287 W/m2
17:38 27.7 °C 14.7 °C 1019.0 hPa ENE 3.2 km/h 6.4 km/h 45% 0.0 mm 343 W/m2
17:43 27.5 °C 14.5 °C 1019.0 hPa Calm   9.7 km/h 45% 0.0 mm 332 W/m2
17:48 27.5 °C 15.2 °C 1019.0 hPa SSE 3.2 km/h 3.2 km/h 47% 0.0 mm 318 W/m2
17:53 27.5 °C 14.5 °C 1019.0 hPa SE 1.4 km/h 4.8 km/h 45% 0.0 mm 304 W/m2
17:58 27.6 °C 15.3 °C 1019.0 hPa West 3.2 km/h 4.8 km/h 47% 0.0 mm 299 W/m2
18:03 27.4 °C 14.4 °C 1019.0 hPa East 1.4 km/h 1.6 km/h 45% 0.0 mm 292 W/m2
18:08 27.4 °C 15.4 °C 1019.0 hPa ESE 1.4 km/h 4.8 km/h 48% 0.0 mm 272 W/m2
18:13 27.4 °C 15.1 °C 1019.0 hPa SE 1.4 km/h 3.2 km/h 47% 0.0 mm 264 W/m2
18:18 27.4 °C 15.4 °C 1019.0 hPa Calm   3.2 km/h 48% 0.0 mm 241 W/m2
18:23 27.3 °C 15 °C 1019.0 hPa Calm   1.6 km/h 47% 0.0 mm 220 W/m2
18:28 27.2 °C 15.2 °C 1018.6 hPa South 1.4 km/h 4.8 km/h 48% 0.0 mm 221 W/m2
18:33 27.1 °C 14.5 °C 1019.0 hPa ENE 1.4 km/h 9.7 km/h 46% 0.0 mm 209 W/m2
18:38 26.9 °C 15.3 °C 1018.6 hPa Calm   1.6 km/h 49% 0.0 mm 195 W/m2
18:43 26.7 °C 15.1 °C 1018.6 hPa SSE 1.4 km/h 9.7 km/h 49% 0.0 mm 181 W/m2
18:48 26.5 °C 15.2 °C 1018.6 hPa SSW 1.4 km/h 3.2 km/h 50% 0.0 mm 171 W/m2
18:53 26.3 °C 15 °C 1018.6 hPa SSW 1.4 km/h 1.6 km/h 50% 0.0 mm 163 W/m2
18:58 26 °C 15.4 °C 1018.3 hPa Calm   1.6 km/h 52% 0.0 mm 144 W/m2
19:03 25.7 °C 15.4 °C 1018.3 hPa SSW 3.2 km/h 3.2 km/h 53% 0.0 mm 130 W/m2
19:08 25.4 °C 15.1 °C 1018.3 hPa Calm   3.2 km/h 53% 0.0 mm 114 W/m2
19:13 25.1 °C 14.3 °C 1018.3 hPa ESE 1.4 km/h 9.7 km/h 51% 0.0 mm 95 W/m2
19:18 24.8 °C 15.1 °C 1018.3 hPa ESE 1.4 km/h 1.6 km/h 55% 0.0 mm 69 W/m2
19:23 24.5 °C 15.1 °C 1018.3 hPa SE 1.4 km/h 6.4 km/h 56% 0.0 mm 40 W/m2
19:28 24.2 °C 15.1 °C 1018.3 hPa Calm   1.6 km/h 57% 0.0 mm 37 W/m2
19:33 23.9 °C 15.1 °C 1018.3 hPa Calm     58% 0.0 mm 33 W/m2
19:38 23.7 °C 15.2 °C 1018.3 hPa SE 1.4 km/h 3.2 km/h 59% 0.0 mm 30 W/m2
19:43 23.4 °C 14.9 °C 1018.3 hPa SE 3.2 km/h 3.2 km/h 59% 0.0 mm 28 W/m2
19:48 23.3 °C 15.1 °C 1018.3 hPa SE 1.4 km/h 3.2 km/h 60% 0.0 mm 23 W/m2
19:53 23.1 °C 15.2 °C 1018.3 hPa SE 3.2 km/h 3.2 km/h 61% 0.0 mm 19 W/m2
19:58 22.7 °C 15 °C 1018.3 hPa SE 1.4 km/h 3.2 km/h 62% 0.0 mm 14 W/m2
20:03 22.4 °C 14.8 °C 1018.3 hPa SE 1.4 km/h 3.2 km/h 62% 0.0 mm 11 W/m2
20:08 22.1 °C 15 °C 1018.3 hPa Calm   3.2 km/h 64% 0.0 mm 5 W/m2
20:13 21.9 °C 15 °C 1018.3 hPa SE 1.4 km/h 3.2 km/h 65% 0.0 mm 5 W/m2
20:18 21.7 °C 14.8 °C 1018.3 hPa SE 3.2 km/h 3.2 km/h 65% 0.0 mm 5 W/m2
20:23 21.5 °C 14.9 °C 1018.3 hPa SE 1.4 km/h 3.2 km/h 66% 0.0 mm 0 W/m2
20:28 21.3 °C 14.9 °C 1018.3 hPa SE 1.4 km/h 3.2 km/h 67% 0.0 mm 0 W/m2
20:33 21.1 °C 14.7 °C 1018.6 hPa SE 1.4 km/h 3.2 km/h 67% 0.0 mm 0 W/m2
20:38 20.9 °C 14.8 °C 1018.6 hPa SE 1.4 km/h 1.6 km/h 68% 0.0 mm 0 W/m2
20:43 20.8 °C 14.7 °C 1018.6 hPa Calm   1.6 km/h 68% 0.0 mm 0 W/m2
20:48 20.6 °C 14.7 °C 1018.6 hPa SE 1.4 km/h 1.6 km/h 69% 0.0 mm 0 W/m2
20:53 20.4 °C 14.5 °C 1018.6 hPa SE 1.4 km/h 1.6 km/h 69% 0.0 mm 0 W/m2
20:58 20.3 °C 14.6 °C 1018.6 hPa SE 1.4 km/h 1.6 km/h 70% 0.0 mm 0 W/m2
21:03 20.1 °C 14.7 °C 1018.6 hPa SE 1.4 km/h   71% 0.0 mm 0 W/m2
21:08 19.9 °C 14.5 °C 1018.6 hPa SE 1.4 km/h   71% 0.0 mm 0 W/m2
21:13 19.8 °C 14.6 °C 1018.6 hPa Calm     72% 0.0 mm 0 W/m2
21:19 19.7 °C 14.7 °C 1018.6 hPa Calm     73% 0.0 mm 0 W/m2
21:24 19.6 °C 14.6 °C 1018.6 hPa Calm     73% 0.0 mm 0 W/m2
21:29 19.4 °C 14.4 °C 1018.6 hPa Calm     73% 0.0 mm 0 W/m2
21:34 19.4 °C 14.4 °C 1018.6 hPa Calm     73% 0.0 mm 0 W/m2
21:39 19.2 °C 14.5 °C 1018.6 hPa Calm     74% 0.0 mm 0 W/m2
21:44 19.2 °C 14.7 °C 1018.6 hPa Calm   3.2 km/h 75% 0.0 mm 0 W/m2
21:49 19 °C 14.5 °C 1018.6 hPa Calm     75% 0.0 mm 0 W/m2
21:54 18.9 °C 14.4 °C 1018.6 hPa Calm   3.2 km/h 75% 0.0 mm 0 W/m2
21:59 18.8 °C 14.5 °C 1018.6 hPa Calm     76% 0.0 mm 0 W/m2
22:04 18.8 °C 14.5 °C 1018.6 hPa Calm     76% 0.0 mm 0 W/m2
22:09 18.7 °C 14.6 °C 1018.6 hPa Calm     77% 0.0 mm 0 W/m2
22:14 18.6 °C 14.5 °C 1018.6 hPa Calm     77% 0.0 mm 0 W/m2
22:19 18.5 °C 14.4 °C 1018.6 hPa Calm     77% 0.0 mm 0 W/m2
22:24 18.3 °C 14.2 °C 1018.6 hPa Calm     77% 0.0 mm 0 W/m2
22:29 18.3 °C 14.4 °C 1018.6 hPa Calm     78% 0.0 mm 0 W/m2
22:34 18.2 °C 14.1 °C 1018.6 hPa Calm     77% 0.0 mm 0 W/m2
22:39 18.1 °C 14.2 °C 1018.6 hPa Calm     78% 0.0 mm 0 W/m2
22:44 18.1 °C 14.2 °C 1018.6 hPa Calm     78% 0.0 mm 0 W/m2
22:49 17.9 °C 14 °C 1018.6 hPa Calm     78% 0.0 mm 0 W/m2
22:54 17.8 °C 14.1 °C 1018.6 hPa Calm     79% 0.0 mm 0 W/m2
22:59 17.8 °C 14.1 °C 1018.6 hPa Calm     79% 0.0 mm 0 W/m2
23:04 17.7 °C 14 °C 1018.6 hPa Calm     79% 0.0 mm 0 W/m2
23:09 17.6 °C 13.9 °C 1018.6 hPa Calm     79% 0.0 mm 0 W/m2
23:14 17.5 °C 14 °C 1018.6 hPa Calm     80% 0.0 mm 0 W/m2
23:19 17.4 °C 13.9 °C 1018.6 hPa Calm     80% 0.0 mm 0 W/m2
23:24 17.4 °C 13.9 °C 1018.3 hPa Calm     80% 0.0 mm 0 W/m2
23:29 17.3 °C 13.8 °C 1018.3 hPa Calm     80% 0.0 mm 0 W/m2
23:34 17.3 °C 14 °C 1018.3 hPa Calm     81% 0.0 mm 0 W/m2
23:39 17.3 °C 14 °C 1018.3 hPa Calm     81% 0.0 mm 0 W/m2
23:44 17.3 °C 14 °C 1018.3 hPa Calm     81% 0.0 mm 0 W/m2
23:49 17.2 °C 13.9 °C 1018.3 hPa Calm     81% 0.0 mm 0 W/m2
23:54 17.2 °C 13.9 °C 1018.3 hPa Calm     81% 0.0 mm 0 W/m2
23:59 17.1 °C 13.8 °C 1018.3 hPa Calm     81% 0.0 mm 0 W/m2
Juneau County Weather
Compliments of Weather Underground - 4 mb